map of PTG home
Great Circle Mapper logo
PTG - Airport
Location
City:  Polokwane, South Africa
Near (Alt.):Pietersburg
Name:Polokwane International Airport
ICAO / IATA:FAPP / PTG

Details
Type:Airport (Aerodrome, Airfield)
Use:Public/Civil, International (customs port of entry)
Latitude:2350'59"S (-23.849646)
Longitude:2927'23"E (29.456489)
Elevation:4076 ft (1242 m)
Runways:2
Longest:8399 × 148 ft (2560 × 45 m), paved

Time
Time Zone:UTC+2
Local Time:

Weather
METAR:FAPP 010300Z 06006KT 9999 BKN010 16/13 Q1022 TEMPO 5000 BCFG

Related Locations
Nearby:
Farthest:HNM: 12034 mi / 19367 km
Hana, Maui, HI, US

Find:

   beyond  
but within

Other Information
Maps:
NOTAMs:
Links:
Sources:

  
flag of South Africa   

Airport Diagram

Airport diagram for PTG

Airport diagram PDF

Sectional Chart

Flight Planning
at skyvector.com

Satellite Image

Google Maps Satellite View

 

Copyright © 2004-2014 Karl L. Swartz. All rights reserved.
The Great Circle Mapper name and logo are trademarks of the Great Circle Mapper.
All other trademarks mentioned herein belong to their respective owners.
Please see credits for attibutions and further copyright information.

  Follow gcmap on Facebook Follow gcmap on Twitter

hCard Microformat

Geo Microformat